Time;durP1;ratioP1;P1;durP2;ratioP2;P2;SDS_P1;SDS_P2;PMS_P1;PMS_P2;Temp;Humidity;BMP_temperature;BMP_pressure;BME280_temperature;BME280_humidity;BME280_pressure;Samples;Min_cycle;Max_cycle;Signal;HPM_P1;HPM_P2
2022/02/15 00:00:24;;;;;;;;;;;7.30;68.10;;;5.45;66.62;95331.22;4968549;28;19922;-65
2022/02/15 00:02:50;;;;;;;;;;;7.40;68.00;;;5.47;66.48;95330.06;4965908;28;20306;-65
2022/02/15 00:05:16;;;;;;;;;;;7.40;68.00;;;5.47;67.41;95324.84;4988230;28;19926;-65
2022/02/15 00:07:42;;;;;;;;;;;7.40;68.00;;;5.49;66.55;95317.66;4973487;28;19922;-65
2022/02/15 00:10:08;;;;;;;;;;;7.40;67.90;;;5.48;67.78;95321.25;4971494;28;19964;-66
2022/02/15 00:12:35;;;;;;;;;;;7.40;67.80;;;5.47;67.37;95324.03;4969864;28;20024;-65
2022/02/15 00:15:01;;;;;;;;;;;7.50;67.70;;;5.51;66.61;95330.53;4953463;28;19926;-65
2022/02/15 00:17:26;;;;;;;;;;;7.50;67.70;;;5.50;67.10;95321.88;4969621;28;20025;-65
2022/02/15 00:19:52;;;;;;;;;;;7.50;67.70;;;5.52;66.77;95322.50;4972234;28;19922;-64
2022/02/15 00:22:18;;;;;;;;;;;7.50;67.70;;;5.52;67.23;95322.50;4972666;28;19922;-64
2022/02/15 00:24:43;;;;;;;;;;;7.50;67.80;;;5.50;67.49;95319.28;4987902;28;19929;-65
2022/02/15 00:27:09;;;;;;;;;;;7.50;67.70;;;5.50;66.95;95327.09;4988315;28;20530;-64
2022/02/15 00:29:34;;;;;;;;;;;7.50;67.60;;;5.50;67.02;95324.50;4985065;28;19983;-65
2022/02/15 00:32:00;;;;;;;;;;;7.40;67.60;;;5.48;67.22;95326.47;4987217;28;19937;-66
2022/02/15 00:34:26;;;;;;;;;;;7.40;67.50;;;5.47;66.28;95335.28;4968255;28;19953;-65
2022/02/15 00:36:51;;;;;;;;;;;7.30;67.90;;;5.42;67.50;95329.75;4989030;28;20441;-66
2022/02/15 00:39:17;;;;;;;;;;;7.20;68.20;;;5.33;67.74;95323.00;4969020;28;19926;-65
2022/02/15 00:41:43;;;;;;;;;;;7.10;68.60;;;5.35;67.64;95330.66;4988818;28;19922;-66
2022/02/15 00:44:08;;;;;;;;;;;7.10;68.80;;;5.35;66.22;95334.06;4986165;28;20386;-62
2022/02/15 00:46:34;;;;;;;;;;;7.10;68.80;;;5.33;67.76;95333.44;4985847;28;19991;-63
2022/02/15 00:49:00;;;;;;;;;;;7.10;69.20;;;5.31;68.16;95339.81;4987267;28;19928;-63
2022/02/15 00:51:25;;;;;;;;;;;7.00;69.50;;;5.26;67.70;95337.72;4984769;28;19932;-62
2022/02/15 00:53:51;;;;;;;;;;;6.90;69.80;;;5.27;67.36;95341.97;4983802;28;19933;-63
2022/02/15 00:56:17;;;;;;;;;;;7.00;69.90;;;5.26;67.79;95342.94;4968790;28;20183;-63
2022/02/15 00:58:42;;;;;;;;;;;7.00;69.90;;;5.24;68.30;95334.50;4983914;28;20237;-64
2022/02/15 01:01:08;;;;;;;;;;;7.00;69.90;;;5.25;67.44;95346.53;4971545;28;19968;-62
2022/02/15 01:03:33;;;;;;;;;;;7.00;69.80;;;5.22;68.57;95346.88;4987452;28;19932;-65
2022/02/15 01:05:59;;;;;;;;;;;7.00;70.10;;;5.20;68.95;95338.41;4969990;28;19922;-62
2022/02/15 01:08:26;;;;;;;;;;;6.90;70.40;;;5.20;68.81;95343.63;4981456;28;20315;-64
2022/02/15 01:13:18;;;;;;;;;;;7.00;70.30;;;5.19;68.82;95339.41;5000233;23;19941;-68
2022/02/15 01:15:44;;;;;;;;;;;7.00;70.40;;;5.19;69.09;95342.00;4966502;28;19929;-66
2022/02/15 01:18:09;;;;;;;;;;;6.90;70.50;;;5.18;69.05;95338.59;4939467;28;19937;-66
2022/02/15 01:20:35;;;;;;;;;;;6.90;70.60;;;5.18;70.59;95346.41;4938013;28;19930;-65
2022/02/15 01:23:01;;;;;;;;;;;6.90;70.80;;;5.18;69.76;95350.81;4971482;28;19980;-65
2022/02/15 01:25:27;;;;;;;;;;;7.00;70.80;;;5.15;69.26;95351.97;4952871;28;20412;-66
2022/02/15 01:27:54;;;;;;;;;;;6.90;71.10;;;5.13;69.92;95351.34;4938379;28;19942;-66
2022/02/15 01:30:20;;;;;;;;;;;6.80;71.30;;;5.13;69.30;95348.72;4967643;28;19921;-66
2022/02/15 01:32:47;;;;;;;;;;;6.80;71.40;;;5.11;70.17;95355.09;4952613;28;19972;-66
2022/02/15 01:35:13;;;;;;;;;;;6.80;71.60;;;5.11;70.61;95349.88;4983474;28;19949;-66
2022/02/15 01:37:39;;;;;;;;;;;6.80;71.60;;;5.11;69.59;95358.53;4968969;28;19959;-66
2022/02/15 01:40:05;;;;;;;;;;;6.80;71.60;;;5.12;71.08;95348.91;4954099;28;19922;-66
2022/02/15 01:42:31;;;;;;;;;;;6.90;71.50;;;5.11;70.13;95362.91;4954763;28;20251;-66
2022/02/15 01:44:57;;;;;;;;;;;6.90;71.70;;;5.12;70.47;95359.31;4957307;28;19983;-66
2022/02/15 01:47:23;;;;;;;;;;;6.90;71.60;;;5.13;69.68;95361.75;4966925;28;19926;-66
2022/02/15 01:49:49;;;;;;;;;;;6.90;71.60;;;5.13;69.88;95359.16;4973466;28;19922;-66
2022/02/15 01:52:14;;;;;;;;;;;6.90;71.60;;;5.15;70.46;95369.41;4972987;28;19933;-65
2022/02/15 01:54:40;;;;;;;;;;;6.90;71.50;;;5.16;70.21;95371.03;4956487;28;19926;-66
2022/02/15 01:57:06;;;;;;;;;;;7.00;71.50;;;5.17;69.79;95355.22;4971864;28;19944;-66
2022/02/15 01:59:34;;;;;;;;;;;7.00;71.50;;;5.16;70.10;95352.78;4964232;28;19928;-66
2022/02/15 02:02:00;;;;;;;;;;;7.00;71.70;;;5.16;70.88;95358.00;4954438;28;19961;-66
2022/02/15 02:05:47;;;;;;;;;;;7.00;71.70;;;5.17;70.76;95362.22;4968596;28;19991;-66
2022/02/15 02:07:11;;;;;;;;;;;6.90;71.90;;;5.16;70.50;95353.59;4965710;28;19922;-66
2022/02/15 02:09:37;;;;;;;;;;;7.00;72.10;;;5.18;71.03;95345.59;4969760;28;19922;-66
2022/02/15 02:12:03;;;;;;;;;;;7.00;72.20;;;5.18;70.83;95342.97;4935597;28;19922;-66
2022/02/15 02:14:28;;;;;;;;;;;6.90;72.40;;;5.15;71.85;95345.94;4983692;28;19929;-66
2022/02/15 02:16:54;;;;;;;;;;;6.90;72.70;;;5.15;70.77;95348.56;4953078;28;19921;-66
2022/02/15 02:19:20;;;;;;;;;;;7.00;72.70;;;5.15;71.71;95351.16;4985557;28;19926;-66
2022/02/15 02:21:45;;;;;;;;;;;7.00;72.70;;;5.15;72.18;95359.78;4952450;28;20496;-66
2022/02/15 02:24:11;;;;;;;;;;;7.00;72.90;;;5.15;72.16;95361.59;4948940;28;19925;-65
2022/02/15 02:26:37;;;;;;;;;;;6.90;73.10;;;5.12;72.42;95367.16;4951516;28;19925;-66
2022/02/15 02:29:02;;;;;;;;;;;6.80;73.50;;;5.10;72.81;95366.50;4985348;28;19922;-66
2022/02/15 02:31:28;;;;;;;;;;;6.80;73.80;;;5.10;73.04;95364.72;4952735;28;19932;-66
2022/02/15 02:33:58;;;;;;;;;;;6.90;73.60;;;5.08;72.72;95366.69;4985310;28;19953;-66
2022/02/15 02:36:24;;;;;;;;;;;6.90;73.80;;;5.07;73.13;95365.06;4966366;28;20389;-66
2022/02/15 02:38:50;;;;;;;;;;;6.80;73.90;;;5.07;72.12;95372.06;4949429;28;20641;-66
2022/02/15 02:41:15;;;;;;;;;;;6.90;73.90;;;5.06;72.20;95367.84;4966817;28;20341;-66
2022/02/15 02:43:41;;;;;;;;;;;6.80;74.20;;;5.05;73.24;95376.66;4951062;28;19933;-66
2022/02/15 02:46:06;;;;;;;;;;;6.80;74.30;;;5.03;73.28;95363.78;4968451;28;20054;-66
2022/02/15 02:48:32;;;;;;;;;;;6.80;74.40;;;5.03;72.95;95362.97;4968020;28;19930;-66
2022/02/15 02:50:58;;;;;;;;;;;6.80;74.40;;;5.02;72.94;95367.38;4938617;28;19997;-66
2022/02/15 02:53:24;;;;;;;;;;;6.80;74.60;;;5.02;73.23;95366.56;4969910;28;19922;-66
2022/02/15 02:55:50;;;;;;;;;;;6.80;74.50;;;5.00;73.57;95369.34;4990729;28;19926;-66
2022/02/15 02:58:15;;;;;;;;;;;6.70;74.90;;;4.97;73.46;95374.88;4958959;28;20397;-67
2022/02/15 03:00:41;;;;;;;;;;;6.60;75.10;;;4.98;74.06;95378.31;4939662;28;19976;-66
2022/02/15 03:03:09;;;;;;;;;;;6.70;75.10;;;4.98;73.51;95383.50;4976616;28;19947;-66
2022/02/15 03:05:35;;;;;;;;;;;6.80;74.90;;;4.98;73.76;95391.34;4955685;28;19934;-66
2022/02/15 03:08:01;;;;;;;;;;;6.70;75.10;;;4.97;73.26;95390.53;4942012;28;19938;-66
2022/02/15 03:10:27;;;;;;;;;;;6.70;75.40;;;4.95;73.21;95386.47;4955225;28;19980;-66
2022/02/15 03:12:52;;;;;;;;;;;6.70;75.60;;;4.95;74.63;95389.88;4972430;28;19929;-66
2022/02/15 03:15:18;;;;;;;;;;;6.70;75.40;;;4.93;74.56;95390.06;4972494;28;19925;-65
2022/02/15 03:17:44;;;;;;;;;;;6.70;75.60;;;4.97;74.71;95394.91;4972802;28;19950;-66
2022/02/15 03:20:10;;;;;;;;;;;6.80;75.60;;;4.97;74.31;95392.31;4940549;28;20304;-66
2022/02/15 03:22:36;;;;;;;;;;;6.80;75.70;;;4.97;75.01;95394.91;4972135;28;20041;-66
2022/02/15 03:25:02;;;;;;;;;;;6.80;75.80;;;4.95;74.80;95407.31;4957173;28;19977;-66
2022/02/15 03:27:27;;;;;;;;;;;6.80;75.90;;;4.95;75.17;95407.31;4989924;28;20017;-66
2022/02/15 03:29:53;;;;;;;;;;;6.90;76.20;;;4.97;75.60;95413.16;4953881;28;19923;-66
2022/02/15 03:32:19;;;;;;;;;;;6.80;76.30;;;4.98;75.52;95417.41;4989871;28;19922;-66
2022/02/15 03:34:44;;;;;;;;;;;6.80;76.40;;;4.97;76.00;95418.38;4955748;28;20309;-65
2022/02/15 03:37:10;;;;;;;;;;;6.80;76.60;;;4.99;76.43;95419.03;4972219;28;19922;-66
2022/02/15 03:39:36;;;;;;;;;;;6.70;76.60;;;4.98;75.59;95427.81;4955503;28;19926;-66
2022/02/15 03:44:48;;;;;;;;;;;6.80;76.90;;;4.96;74.13;95425.38;4974589;28;19932;-65
2022/02/15 03:47:13;;;;;;;;;;;6.70;77.30;;;4.93;76.26;95429.16;4955039;28;19926;-66
2022/02/15 03:49:39;;;;;;;;;;;6.60;77.80;;;4.91;76.78;95427.69;4987449;28;20009;-66
2022/02/15 03:52:05;;;;;;;;;;;6.70;77.70;;;4.91;77.14;95425.09;4957611;28;19925;-66
2022/02/15 03:54:30;;;;;;;;;;;6.70;78.20;;;4.90;77.28;95426.88;4970712;28;19960;-66
2022/02/15 03:56:56;;;;;;;;;;;6.60;78.60;;;4.89;76.71;95433.09;4955217;28;19926;-65
2022/02/15 03:59:22;;;;;;;;;;;6.70;78.40;;;4.87;77.29;95424.63;4957897;28;19922;-65
2022/02/15 04:01:47;;;;;;;;;;;6.60;78.70;;;4.88;77.23;95436.66;4968116;28;19922;-67
2022/02/15 04:04:13;;;;;;;;;;;6.70;78.70;;;4.84;77.32;95435.38;4956428;28;19921;-68
2022/02/15 04:06:39;;;;;;;;;;;6.50;79.20;;;4.81;78.78;95432.31;4939570;28;21704;-67
2022/02/15 04:09:04;;;;;;;;;;;6.60;79.10;;;4.81;77.98;95437.53;4956756;28;19922;-68
2022/02/15 04:11:30;;;;;;;;;;;6.60;79.40;;;4.82;78.22;95442.56;4970217;28;19921;-67
2022/02/15 04:13:56;;;;;;;;;;;6.60;79.30;;;4.81;78.42;95445.34;4955794;28;19948;-67
2022/02/15 04:16:21;;;;;;;;;;;6.50;79.50;;;4.78;78.81;95453.50;4972798;28;19922;-68
2022/02/15 04:18:48;;;;;;;;;;;6.50;80.00;;;4.77;79.18;95451.88;4970335;28;19948;-67
2022/02/15 04:21:15;;;;;;;;;;;6.50;80.20;;;4.74;79.09;95445.19;4955460;28;19926;-67
2022/02/15 04:23:41;;;;;;;;;;;6.50;80.10;;;4.76;79.80;95451.06;4988098;28;19944;-67
2022/02/15 04:26:07;;;;;;;;;;;6.60;80.20;;;4.77;80.16;95463.09;4971524;28;19925;-67
2022/02/15 04:28:34;;;;;;;;;;;6.60;80.50;;;4.76;79.89;95448.47;4969896;28;19926;-67
2022/02/15 04:31:00;;;;;;;;;;;6.60;80.70;;;4.79;79.83;95455.94;4954764;28;19921;-67
2022/02/15 04:33:26;;;;;;;;;;;6.60;80.60;;;4.82;80.62;95460.81;4968059;28;19936;-67
2022/02/15 04:35:51;;;;;;;;;;;6.70;80.40;;;4.82;80.49;95463.41;4974454;28;20003;-67
2022/02/15 04:38:17;;;;;;;;;;;6.60;80.50;;;4.82;80.05;95463.41;4956281;28;19928;-71
2022/02/15 04:40:43;;;;;;;;;;;6.60;80.60;;;4.82;79.45;95468.63;4957201;28;20412;-69
2022/02/15 04:43:08;;;;;;;;;;;6.60;80.60;;;4.78;78.84;95469.94;4973735;28;19922;-71
2022/02/15 04:45:34;;;;;;;;;;;6.60;81.00;;;4.74;79.74;95473.84;4956966;28;19926;-69
2022/02/15 04:48:00;;;;;;;;;;;6.50;81.30;;;4.71;80.18;95478.56;4973674;28;20293;-67
2022/02/15 04:50:25;;;;;;;;;;;6.40;81.80;;;4.66;80.63;95468.66;4972697;28;20032;-67
2022/02/15 04:52:51;;;;;;;;;;;6.40;81.90;;;4.66;81.37;95470.47;4953476;28;20608;-67
2022/02/15 04:55:17;;;;;;;;;;;6.50;81.80;;;4.66;80.99;95473.88;4979173;28;19953;-67
2022/02/15 04:57:43;;;;;;;;;;;6.40;81.90;;;4.62;80.71;95470.00;4980712;28;19922;-68
2022/02/15 05:00:09;;;;;;;;;;;6.40;82.10;;;4.64;80.82;95472.44;4991023;28;20370;-67
2022/02/15 05:02:34;;;;;;;;;;;6.50;82.00;;;4.61;80.38;95474.38;4940189;28;20013;-68
2022/02/15 05:05:00;;;;;;;;;;;6.40;82.10;;;4.58;81.64;95479.13;4957092;28;20417;-67
2022/02/15 05:07:28;;;;;;;;;;;6.30;82.60;;;4.55;81.86;95474.25;4990396;28;19948;-68
2022/02/15 05:09:54;;;;;;;;;;;6.30;82.70;;;4.56;81.62;95481.09;4973500;28;20358;-67
2022/02/15 05:12:20;;;;;;;;;;;6.30;82.60;;;4.54;81.96;95483.03;4970997;28;19938;-68
2022/02/15 05:14:45;;;;;;;;;;;6.20;83.00;;;4.53;82.34;95487.44;4970996;28;20281;-68
2022/02/15 05:17:11;;;;;;;;;;;6.20;83.00;;;4.52;82.68;95487.56;4973284;28;20172;-67
2022/02/15 05:19:39;;;;;;;;;;;6.30;83.10;;;4.53;81.48;95491.84;4972806;28;19987;-68
2022/02/15 05:22:05;;;;;;;;;;;6.30;82.90;;;4.50;83.13;95492.16;4957599;28;19953;-67
2022/02/15 05:24:30;;;;;;;;;;;6.30;83.10;;;4.49;82.18;95495.72;4955663;28;20375;-68
2022/02/15 05:26:56;;;;;;;;;;;6.20;83.30;;;4.50;82.84;95497.34;4972880;28;19932;-68
2022/02/15 05:29:22;;;;;;;;;;;6.20;83.50;;;4.49;82.80;95493.94;4956522;28;19922;-67
2022/02/15 05:31:49;;;;;;;;;;;6.20;83.30;;;4.49;84.39;95503.53;4973126;28;20372;-67
2022/02/15 05:34:15;;;;;;;;;;;6.20;83.70;;;4.46;83.32;95502.09;4956161;28;19953;-67
2022/02/15 05:36:41;;;;;;;;;;;6.10;83.60;;;4.47;83.36;95502.91;4954989;28;19926;-68
2022/02/15 05:39:07;;;;;;;;;;;6.20;83.30;;;4.47;82.95;95500.28;4990202;28;20006;-68
2022/02/15 05:41:33;;;;;;;;;;;6.20;83.10;;;4.47;82.82;95513.31;4956032;28;19929;-69
2022/02/15 05:43:59;;;;;;;;;;;6.20;83.30;;;4.45;83.22;95515.28;4940358;28;19949;-69
2022/02/15 05:46:24;;;;;;;;;;;6.20;83.40;;;4.45;83.16;95513.47;4955961;28;19968;-70
2022/02/15 05:48:50;;;;;;;;;;;6.10;83.50;;;4.45;84.17;95517.88;4989892;28;20065;-70
2022/02/15 05:51:16;;;;;;;;;;;6.20;83.20;;;4.46;82.62;95527.31;4956417;28;19922;-70
2022/02/15 05:53:41;;;;;;;;;;;6.20;83.20;;;4.42;80.89;95520.81;4955869;28;19922;-71
2022/02/15 05:56:07;;;;;;;;;;;6.10;83.60;;;4.38;80.29;95524.72;4956238;28;19922;-71
2022/02/15 05:58:33;;;;;;;;;;;6.00;83.60;;;4.34;83.69;95523.44;4971388;28;20263;-70
2022/02/15 06:00:59;;;;;;;;;;;6.00;84.00;;;4.36;83.66;95534.50;4956420;28;19922;-68
2022/02/15 06:06:09;;;;;;;;;;;6.10;83.70;;;4.35;84.18;95527.66;4971408;28;19949;-67
2022/02/15 06:08:35;;;;;;;;;;;6.10;83.70;;;4.36;83.92;95531.88;4973665;28;19922;-67
2022/02/15 06:11:01;;;;;;;;;;;6.10;83.60;;;4.35;83.50;95535.47;4967236;28;19921;-68
2022/02/15 06:13:26;;;;;;;;;;;6.10;84.00;;;4.35;83.92;95535.47;4969537;28;19926;-68
2022/02/15 06:15:52;;;;;;;;;;;6.10;83.90;;;4.30;83.55;95539.38;4970529;28;19933;-68
2022/02/15 06:18:18;;;;;;;;;;;6.10;84.00;;;4.26;81.20;95538.06;4962657;28;19926;-67
2022/02/15 06:20:43;;;;;;;;;;;5.90;84.30;;;4.23;82.69;95540.19;4970516;28;19925;-67
2022/02/15 06:23:09;;;;;;;;;;;5.90;84.20;;;4.20;82.20;95543.13;4988741;28;19922;-64
2022/02/15 06:25:35;;;;;;;;;;;5.90;84.60;;;4.16;83.42;95545.25;4954594;28;19922;-65
2022/02/15 06:28:00;;;;;;;;;;;5.80;84.60;;;4.15;84.23;95546.22;4955606;28;20354;-66
2022/02/15 06:30:26;;;;;;;;;;;5.80;84.70;;;4.15;82.76;95546.22;4971525;28;19926;-67
2022/02/15 06:32:52;;;;;;;;;;;5.80;84.50;;;4.13;84.11;95549.97;4974710;28;20290;-66
2022/02/15 06:35:19;;;;;;;;;;;5.80;84.60;;;4.10;83.35;95552.88;4967319;28;21325;-62
2022/02/15 06:37:46;;;;;;;;;;;5.80;84.80;;;4.11;84.21;95555.34;4962501;28;21535;-65
2022/02/15 06:40:12;;;;;;;;;;;5.80;84.30;;;4.12;84.17;95556.13;4958840;28;20439;-65
2022/02/15 06:42:38;;;;;;;;;;;5.90;84.30;;;4.11;84.27;95559.72;4953627;28;20339;-65
2022/02/15 06:45:05;;;;;;;;;;;5.90;84.20;;;4.10;83.95;95569.31;4966807;28;19933;-66
2022/02/15 06:47:30;;;;;;;;;;;5.90;84.30;;;4.08;83.40;95565.25;4962859;28;20058;-65
2022/02/15 06:49:56;;;;;;;;;;;5.80;84.10;;;4.08;84.36;95573.06;4959444;28;20577;-64
2022/02/15 06:52:22;;;;;;;;;;;5.80;84.10;;;4.10;85.06;95573.72;4955151;28;19980;-64
2022/02/15 06:54:47;;;;;;;;;;;5.80;83.90;;;4.09;83.71;95572.09;4968389;28;19926;-66
2022/02/15 06:57:13;;;;;;;;;;;5.90;83.80;;;4.09;85.21;95583.31;4955468;28;19928;-64
2022/02/15 06:59:39;;;;;;;;;;;5.90;83.60;;;4.12;83.92;95582.97;4938850;28;20534;-63
2022/02/15 07:02:04;;;;;;;;;;;5.90;83.30;;;4.13;83.89;95584.59;4988628;28;20012;-64
2022/02/15 07:04:30;;;;;;;;;;;6.00;83.50;;;4.13;83.06;95589.81;4968987;28;19928;-68
2022/02/15 07:06:56;;;;;;;;;;;5.90;83.30;;;4.12;83.08;95587.38;4963302;28;19995;-63
2022/02/15 07:09:22;;;;;;;;;;;5.90;83.30;;;4.10;81.81;95599.72;4955148;28;20004;-63
2022/02/15 07:11:48;;;;;;;;;;;5.80;83.50;;;4.10;83.28;95597.94;4954833;28;19976;-63
2022/02/15 07:14:13;;;;;;;;;;;5.90;83.50;;;4.11;84.27;95596.16;4954599;28;19988;-63
2022/02/15 07:16:43;;;;;;;;;;;5.90;83.50;;;4.11;83.30;95601.38;4970036;28;19940;-63
2022/02/15 07:19:09;;;;;;;;;;;5.80;83.30;;;4.11;84.85;95601.38;4973065;28;20016;-63
2022/02/15 07:21:35;;;;;;;;;;;5.90;83.10;;;4.07;83.47;95595.63;4954986;28;20068;-62
2022/02/15 07:24:02;;;;;;;;;;;5.80;83.50;;;4.08;82.38;95599.91;4971426;28;19979;-62
2022/02/15 07:26:27;;;;;;;;;;;5.90;83.40;;;4.08;83.09;95607.72;4970268;28;19984;-64
2022/02/15 07:28:53;;;;;;;;;;;5.80;83.70;;;4.09;83.01;95614.53;4970691;28;20274;-62
2022/02/15 07:31:19;;;;;;;;;;;5.90;83.30;;;4.08;83.76;95618.13;4987978;28;20330;-65
2022/02/15 07:33:44;;;;;;;;;;;5.80;83.30;;;4.09;83.86;95622.34;4987364;28;19960;-66
2022/02/15 07:36:10;;;;;;;;;;;5.90;83.20;;;4.09;83.50;95622.34;4990090;28;19922;-67
2022/02/15 07:38:36;;;;;;;;;;;5.90;83.10;;;4.07;83.50;95621.66;4958502;28;19925;-66
2022/02/15 07:41:01;;;;;;;;;;;5.90;83.30;;;4.08;83.51;95628.53;4974224;28;19983;-67
2022/02/15 07:43:27;;;;;;;;;;;5.80;83.40;;;4.08;83.10;95636.34;4946745;28;19929;-65
2022/02/15 07:45:53;;;;;;;;;;;5.90;83.30;;;4.10;83.81;95626.56;4967718;28;19936;-65
2022/02/15 07:48:19;;;;;;;;;;;5.90;83.40;;;4.13;83.98;95635.84;4946574;28;20009;-65
2022/02/15 07:50:44;;;;;;;;;;;6.00;83.30;;;4.16;83.60;95641.53;4956672;28;19922;-67
2022/02/15 07:53:10;;;;;;;;;;;6.10;82.90;;;4.18;84.07;95634.38;4941943;28;19922;-65
2022/02/15 07:55:36;;;;;;;;;;;6.10;82.50;;;4.21;82.53;95641.06;4973697;28;19933;-65
2022/02/15 07:58:02;;;;;;;;;;;6.10;82.50;;;4.20;83.66;95640.25;4974586;28;20306;-65
2022/02/15 08:00:27;;;;;;;;;;;6.00;82.60;;;4.21;84.46;95636.66;4973813;28;19922;-65
2022/02/15 08:02:53;;;;;;;;;;;6.00;82.60;;;4.20;81.75;95635.03;4974368;28;20318;-66
2022/02/15 08:05:20;;;;;;;;;;;6.00;82.60;;;4.20;82.23;95637.63;4954338;28;19981;-65
2022/02/15 08:07:49;;;;;;;;;;;6.00;82.70;;;4.20;82.73;95637.63;4973996;28;19929;-65
2022/02/15 08:10:18;;;;;;;;;;;6.00;82.50;;;4.25;83.08;95634.53;4958360;28;19921;-64
2022/02/15 08:12:47;;;;;;;;;;;6.10;82.40;;;4.27;82.46;95636.00;4969816;28;20012;-66
2022/02/15 08:15:13;;;;;;;;;;;6.20;82.30;;;4.28;82.75;95637.63;4988777;28;20008;-67
2022/02/15 08:17:39;;;;;;;;;;;6.20;82.20;;;4.32;82.87;95637.34;4967136;28;19932;-65
2022/02/15 08:20:05;;;;;;;;;;;6.20;82.40;;;4.35;82.84;95650.03;4957438;28;19922;-65
2022/02/15 08:22:31;;;;;;;;;;;6.20;82.30;;;4.38;81.69;95645.31;4990922;28;19921;-65
2022/02/15 08:24:56;;;;;;;;;;;6.30;81.90;;;4.43;82.56;95645.63;4972707;28;20344;-65
2022/02/15 08:27:22;;;;;;;;;;;6.40;81.50;;;4.48;82.26;95647.75;4957798;28;19922;-62
2022/02/15 08:29:48;;;;;;;;;;;6.40;81.20;;;4.56;82.02;95647.78;4991352;28;19930;-66
2022/02/15 08:32:15;;;;;;;;;;;6.60;80.70;;;4.62;83.16;95649.72;4973603;28;19922;-65
2022/02/15 08:34:40;;;;;;;;;;;6.60;80.60;;;4.67;81.69;95657.03;4956291;28;19929;-63
2022/02/15 08:37:06;;;;;;;;;;;6.60;80.20;;;4.69;81.77;95657.69;4973238;28;19933;-68
2022/02/15 08:39:32;;;;;;;;;;;6.70;80.10;;;4.72;81.12;95658.16;4934379;28;19922;-66
2022/02/15 08:42:04;;;;;;;;;;;6.60;80.00;;;4.79;81.75;95664.38;4957513;28;20002;-65
2022/02/15 08:44:32;;;;;;;;;;;6.70;79.70;;;4.84;81.18;95672.50;4943280;28;20428;-65
2022/02/15 08:46:57;;;;;;;;;;;6.80;79.40;;;4.87;79.79;95666.97;4951651;28;20033;-66
2022/02/15 08:49:23;;;;;;;;;;;6.80;79.10;;;4.90;81.00;95669.22;4957373;28;20040;-65
2022/02/15 08:51:49;;;;;;;;;;;6.90;79.40;;;4.97;80.97;95676.38;4973279;28;19921;-65
2022/02/15 08:54:14;;;;;;;;;;;7.00;79.10;;;4.99;80.82;95682.28;4990488;28;19961;-65
2022/02/15 08:56:40;;;;;;;;;;;7.00;79.10;;;5.05;80.29;95679.81;4972543;28;19922;-67
2022/02/15 08:59:06;;;;;;;;;;;7.10;78.60;;;5.08;80.85;95695.13;4972437;28;19921;-65
2022/02/15 09:01:33;;;;;;;;;;;7.00;78.80;;;5.10;78.83;95681.91;4962400;28;19937;-64
2022/02/15 09:03:58;;;;;;;;;;;6.90;78.70;;;5.14;80.93;95680.59;4989545;28;19921;-64
2022/02/15 09:06:24;;;;;;;;;;;7.10;78.90;;;5.16;80.83;95687.28;4956214;28;19937;-63
2022/02/15 09:08:50;;;;;;;;;;;7.00;78.50;;;5.20;80.04;95696.41;4989456;28;20455;-64
2022/02/15 09:11:16;;;;;;;;;;;7.10;78.70;;;5.22;79.85;95698.88;4940450;28;19952;-64
2022/02/15 09:13:42;;;;;;;;;;;7.10;78.30;;;5.25;80.61;95689.88;4974922;28;20250;-64
2022/02/15 09:16:08;;;;;;;;;;;7.10;78.70;;;5.26;78.92;95696.72;4955322;28;19925;-64
2022/02/15 09:18:34;;;;;;;;;;;7.10;78.40;;;5.24;79.02;95699.50;4987820;28;19967;-64
2022/02/15 09:21:00;;;;;;;;;;;7.10;78.30;;;5.26;79.45;95702.75;4955456;28;20385;-65
2022/02/15 09:23:25;;;;;;;;;;;7.10;78.50;;;5.33;80.72;95700.28;4957964;28;19922;-66
2022/02/15 09:25:51;;;;;;;;;;;7.40;78.40;;;5.38;81.39;95698.81;4989518;28;19933;-64
2022/02/15 09:28:17;;;;;;;;;;;7.40;78.10;;;5.44;80.55;95699.97;4989719;28;19925;-66
2022/02/15 09:30:42;;;;;;;;;;;7.50;77.20;;;5.47;80.39;95700.44;4978632;28;19925;-64
2022/02/15 09:33:08;;;;;;;;;;;7.50;77.40;;;5.54;79.30;95698.78;4972494;28;20341;-64
2022/02/15 09:35:34;;;;;;;;;;;7.60;77.10;;;5.62;78.89;95697.94;4970822;28;19937;-65
2022/02/15 09:37:59;;;;;;;;;;;7.70;76.60;;;5.66;79.86;95694.03;4959019;28;19925;-64
2022/02/15 09:40:25;;;;;;;;;;;7.70;76.50;;;5.72;79.56;95702.97;4972420;28;20278;-64
2022/02/15 09:42:51;;;;;;;;;;;7.80;76.20;;;5.75;78.19;95700.03;4972082;28;19922;-63
2022/02/15 09:45:16;;;;;;;;;;;7.80;75.70;;;5.81;79.28;95701.94;4957065;28;19948;-64
2022/02/15 09:47:42;;;;;;;;;;;7.90;76.60;;;5.89;80.01;95707.16;4956199;28;20255;-66
2022/02/15 09:50:08;;;;;;;;;;;8.10;76.40;;;5.96;78.33;95705.50;4956437;28;19928;-64
2022/02/15 09:52:34;;;;;;;;;;;8.10;75.10;;;6.01;78.73;95697.97;4958614;28;19970;-63
2022/02/15 09:55:00;;;;;;;;;;;8.20;75.20;;;6.09;78.59;95708.38;4939240;28;19944;-64
2022/02/15 09:57:26;;;;;;;;;;;8.20;75.10;;;6.13;77.55;95701.03;4945852;28;19925;-66
2022/02/15 09:59:51;;;;;;;;;;;8.20;74.60;;;6.22;77.52;95704.41;4957253;28;19921;-64
2022/02/15 10:02:18;;;;;;;;;;;8.40;74.60;;;6.27;76.81;95712.53;4989607;28;19930;-64
2022/02/15 10:04:44;;;;;;;;;;;8.40;74.00;;;6.33;76.30;95704.00;4970335;28;19929;-64
2022/02/15 10:07:11;;;;;;;;;;;8.40;73.50;;;6.35;77.28;95709.91;4957003;28;19940;-64
2022/02/15 10:09:37;;;;;;;;;;;8.50;73.70;;;6.43;77.67;95704.63;4960678;28;19925;-65
2022/02/15 10:12:07;;;;;;;;;;;8.60;73.20;;;6.47;77.37;95708.50;4988218;28;19932;-66
2022/02/15 10:14:37;;;;;;;;;;;8.60;73.80;;;6.51;76.02;95715.00;4973917;28;20579;-65
2022/02/15 10:17:02;;;;;;;;;;;8.50;73.50;;;6.55;77.23;95715.47;4987968;28;19921;-66
2022/02/15 10:19:29;;;;;;;;;;;8.50;73.50;;;6.53;75.91;95720.88;4975959;28;19926;-67
2022/02/15 10:21:55;;;;;;;;;;;8.40;73.50;;;6.52;77.26;95727.09;4971548;28;19929;-65
2022/02/15 10:24:25;;;;;;;;;;;8.40;73.80;;;6.53;77.02;95728.72;4954998;28;19921;-64
2022/02/15 10:27:12;;;;;;;;;;;8.40;73.80;;;6.48;76.77;95731.03;4937563;28;20012;-64
2022/02/15 10:29:39;;;;;;;;;;;8.20;73.90;;;6.43;77.21;95734.16;4974154;28;20048;-66
2022/02/15 10:32:06;;;;;;;;;;;8.20;75.00;;;6.42;76.65;95736.94;4954496;28;19928;-67
2022/02/15 10:34:32;;;;;;;;;;;8.30;74.70;;;6.39;77.21;95738.13;4969812;28;19925;-65
2022/02/15 10:37:03;;;;;;;;;;;8.20;74.50;;;6.38;77.56;95743.50;4971494;28;19922;-64
2022/02/15 10:39:39;;;;;;;;;;;8.30;75.30;;;6.40;77.90;95744.16;4971990;28;19948;-66
2022/02/15 10:42:24;;;;;;;;;;;8.40;75.40;;;6.41;78.02;95740.56;4956470;28;20005;-63
2022/02/15 10:45:03;;;;;;;;;;;8.50;75.00;;;6.42;77.71;95742.19;4954979;28;19956;-65
2022/02/15 10:47:35;;;;;;;;;;;8.40;74.60;;;6.44;77.25;95735.78;4940532;28;19922;-66
2022/02/15 10:50:03;;;;;;;;;;;8.40;75.00;;;6.45;78.00;95740.03;4988972;28;19922;-68
2022/02/15 10:52:29;;;;;;;;;;;8.40;74.90;;;6.44;76.70;95734.97;4988184;28;20558;-65
2022/02/15 10:54:54;;;;;;;;;;;8.30;74.50;;;6.42;77.21;95735.16;4970911;28;20059;-64
2022/02/15 10:57:22;;;;;;;;;;;8.20;74.90;;;6.42;77.68;95734.34;4971965;28;19930;-66
2022/02/15 10:59:48;;;;;;;;;;;8.20;75.50;;;6.41;78.38;95727.50;4965566;28;19928;-63
2022/02/15 11:02:25;;;;;;;;;;;8.30;75.50;;;6.43;77.93;95734.16;4939313;28;19922;-64
2022/02/15 11:04:51;;;;;;;;;;;8.40;75.10;;;6.43;77.83;95734.16;4968672;28;19928;-66
2022/02/15 11:07:22;;;;;;;;;;;8.30;75.00;;;6.45;77.16;95731.38;4961143;28;19926;-66
2022/02/15 11:10:01;;;;;;;;;;;8.30;75.10;;;6.45;77.79;95731.38;4952853;28;20033;-67
2022/02/15 11:12:52;;;;;;;;;;;8.40;75.20;;;6.47;77.67;95724.19;4975039;28;20428;-65
2022/02/15 11:15:23;;;;;;;;;;;8.40;74.70;;;6.49;78.13;95737.88;4984965;28;19930;-66
2022/02/15 11:17:51;;;;;;;;;;;8.40;75.10;;;6.53;78.09;95736.53;4975515;28;19922;-68
2022/02/15 11:20:18;;;;;;;;;;;8.50;74.50;;;6.56;77.17;95732.78;4958897;28;20017;-66
2022/02/15 11:22:54;;;;;;;;;;;8.50;74.40;;;6.60;77.37;95724.44;4990543;28;19922;-68
2022/02/15 11:25:30;;;;;;;;;;;8.70;74.40;;;6.68;76.75;95726.97;4942380;28;19922;-68
2022/02/15 11:27:56;;;;;;;;;;;8.70;73.60;;;6.75;76.80;95724.47;4958029;28;19928;-67
2022/02/15 11:30:28;;;;;;;;;;;8.90;73.40;;;6.81;76.19;95720.38;4942034;28;19922;-68
2022/02/15 11:32:54;;;;;;;;;;;8.90;72.50;;;6.82;75.81;95724.63;4960431;28;19926;-68
2022/02/15 11:35:19;;;;;;;;;;;8.80;72.70;;;6.82;76.13;95724.63;4968376;28;20009;-68
2022/02/15 11:37:45;;;;;;;;;;;8.70;73.00;;;6.82;76.14;95727.22;4958824;28;20304;-68